createdAt,value
2023-01-31T00:02:52.764Z,89.72
2023-01-31T00:07:45.542Z,89.81
2023-01-31T00:12:38.439Z,89.99
2023-01-31T00:17:31.287Z,89.95
2023-01-31T00:22:24.461Z,89.67
2023-01-31T00:27:17.245Z,89.82
2023-01-31T00:32:10.413Z,89.83
2023-01-31T00:37:03.271Z,89.70
2023-01-31T00:41:59.106Z,89.87
2023-01-31T00:46:51.956Z,89.68
2023-01-31T00:51:45.372Z,89.69
2023-01-31T00:56:38.786Z,89.67
2023-01-31T01:01:31.666Z,89.91
2023-01-31T01:06:25.502Z,89.89
2023-01-31T01:11:24.896Z,89.70
2023-01-31T01:16:23.662Z,89.57
2023-01-31T01:21:23.056Z,89.86
2023-01-31T01:26:25.255Z,89.83
2023-01-31T01:31:20.084Z,89.59
2023-01-31T01:36:17.440Z,89.78
2023-01-31T01:41:13.534Z,89.70
2023-01-31T01:46:06.488Z,89.74
2023-01-31T01:51:00.616Z,89.75
2023-01-31T01:55:58.384Z,89.60
2023-01-31T02:00:54.880Z,89.52
2023-01-31T02:05:57.039Z,89.42
2023-01-31T02:10:52.519Z,89.36
2023-01-31T02:15:46.256Z,89.37
2023-01-31T02:21:01.979Z,89.39
2023-01-31T02:26:43.431Z,89.29
2023-01-31T02:32:01.204Z,89.22
2023-01-31T02:37:13.610Z,89.05
2023-01-31T02:42:23.082Z,89.48
2023-01-31T02:47:43.804Z,89.22
2023-01-31T02:52:48.044Z,88.98
2023-01-31T02:57:43.244Z,89.31
2023-01-31T03:02:36.631Z,89.23
2023-01-31T03:07:38.092Z,88.95
2023-01-31T03:12:51.077Z,88.84
2023-01-31T03:18:07.035Z,88.85
2023-01-31T03:23:05.018Z,88.81
2023-01-31T03:28:03.324Z,88.70
2023-01-31T03:33:15.889Z,88.51
2023-01-31T03:38:15.367Z,88.86
2023-01-31T03:43:22.232Z,88.58
2023-01-31T03:48:19.546Z,88.71
2023-01-31T03:53:26.734Z,88.54
2023-01-31T03:58:23.268Z,88.39
2023-01-31T04:03:28.201Z,88.48
2023-01-31T04:08:21.658Z,88.33
2023-01-31T04:13:22.644Z,88.29
2023-01-31T04:18:15.475Z,88.13
2023-01-31T04:23:08.344Z,88.14
2023-01-31T04:28:03.325Z,87.86
2023-01-31T04:32:58.746Z,87.80
2023-01-31T04:37:51.563Z,87.72
2023-01-31T04:42:48.492Z,87.65
2023-01-31T04:47:43.979Z,87.63
2023-01-31T04:52:37.191Z,87.47
2023-01-31T04:57:31.760Z,87.36
2023-01-31T05:02:27.023Z,87.19
2023-01-31T05:07:19.914Z,87.18
2023-01-31T05:12:13.363Z,86.75
2023-01-31T05:17:06.959Z,86.77
2023-01-31T05:22:01.431Z,86.61
2023-01-31T05:26:59.690Z,86.56
2023-01-31T05:31:54.521Z,86.43
2023-01-31T05:36:47.913Z,86.50
2023-01-31T05:41:40.837Z,86.38
2023-01-31T05:46:34.037Z,86.22
2023-01-31T05:51:26.888Z,86.27
2023-01-31T05:56:19.715Z,86.22
2023-01-31T06:01:12.560Z,86.25
2023-01-31T06:06:05.608Z,86.03
2023-01-31T06:11:02.213Z,85.60
2023-01-31T06:15:55.059Z,85.84
2023-01-31T06:20:47.852Z,85.74
2023-01-31T06:25:40.706Z,85.48
2023-01-31T06:30:34.190Z,85.64
2023-01-31T06:35:27.842Z,85.65
2023-01-31T06:40:20.823Z,85.59
2023-01-31T06:45:13.697Z,85.59
2023-01-31T06:50:06.955Z,85.34
2023-01-31T06:54:59.814Z,85.14
2023-01-31T06:59:52.680Z,85.18
2023-01-31T07:04:45.536Z,84.89
2023-01-31T07:09:38.419Z,84.88
2023-01-31T07:14:31.459Z,84.97
2023-01-31T07:19:24.370Z,84.68
2023-01-31T07:24:17.612Z,84.65
2023-01-31T07:29:12.024Z,84.65
2023-01-31T07:34:05.293Z,84.37
2023-01-31T07:39:01.239Z,84.16
2023-01-31T07:43:54.119Z,83.91
2023-01-31T07:48:46.924Z,83.62
2023-01-31T07:53:42.283Z,83.23
2023-01-31T07:58:39.333Z,83.30
2023-01-31T08:03:36.432Z,82.87
2023-01-31T08:08:29.655Z,82.59
2023-01-31T08:13:23.787Z,82.49
2023-01-31T08:18:16.601Z,82.17
2023-01-31T08:23:09.418Z,81.97
2023-01-31T08:28:03.358Z,81.45
2023-01-31T08:32:56.671Z,81.44
2023-01-31T08:37:50.057Z,81.28
2023-01-31T08:42:43.035Z,81.21
2023-01-31T08:47:36.778Z,81.24
2023-01-31T08:52:30.112Z,81.35
2023-01-31T08:57:23.069Z,80.66
2023-01-31T09:02:16.299Z,80.54
2023-01-31T09:07:09.180Z,79.94
2023-01-31T09:12:02.321Z,79.77
2023-01-31T09:16:55.265Z,79.52
2023-01-31T09:21:48.159Z,79.49
2023-01-31T09:26:41.087Z,79.04
2023-01-31T09:31:34.158Z,78.60
2023-01-31T09:36:28.488Z,78.47
2023-01-31T09:41:29.979Z,78.35
2023-01-31T09:46:27.685Z,78.24
2023-01-31T09:51:22.281Z,77.77
2023-01-31T09:56:24.440Z,77.75
2023-01-31T10:01:33.084Z,77.56
2023-01-31T10:06:31.723Z,77.65
2023-01-31T10:11:36.626Z,77.55
2023-01-31T10:16:44.555Z,77.01
2023-01-31T10:21:45.140Z,76.95
2023-01-31T10:26:42.058Z,76.31
2023-01-31T10:31:44.823Z,76.50
2023-01-31T10:36:46.389Z,76.15
2023-01-31T10:42:12.694Z,75.88
2023-01-31T10:47:14.154Z,76.05
2023-01-31T10:52:06.883Z,75.61
2023-01-31T10:57:00.210Z,75.37
2023-01-31T11:01:53.475Z,74.84
2023-01-31T11:06:46.287Z,74.94
2023-01-31T11:11:56.367Z,74.69
2023-01-31T11:16:50.679Z,74.54
2023-01-31T11:21:49.046Z,74.31
2023-01-31T11:26:56.789Z,73.65
2023-01-31T11:31:50.895Z,72.60
2023-01-31T11:36:45.948Z,72.00
2023-01-31T11:41:43.100Z,70.78
2023-01-31T11:46:45.574Z,70.20
2023-01-31T11:51:40.508Z,69.89
2023-01-31T11:56:38.233Z,69.84
2023-01-31T12:01:31.889Z,70.44
2023-01-31T12:06:37.418Z,70.95
2023-01-31T12:11:31.683Z,70.79
2023-01-31T12:16:28.660Z,70.91
2023-01-31T12:21:24.207Z,71.05
2023-01-31T12:26:35.499Z,71.41
2023-01-31T12:31:47.488Z,71.36
2023-01-31T12:36:58.696Z,71.41
2023-01-31T12:42:03.544Z,71.33
2023-01-31T12:47:11.630Z,71.99
2023-01-31T12:52:23.205Z,72.18
2023-01-31T12:57:46.872Z,72.28
2023-01-31T13:03:13.160Z,72.02
2023-01-31T13:08:17.658Z,71.47
2023-01-31T13:13:28.242Z,71.35
2023-01-31T13:18:23.612Z,71.69
2023-01-31T13:23:25.216Z,71.41
2023-01-31T13:28:24.262Z,70.93
2023-01-31T13:33:20.170Z,70.76
2023-01-31T13:38:18.307Z,70.51
2023-01-31T13:43:16.773Z,70.59
2023-01-31T13:48:20.537Z,70.58
2023-01-31T13:53:29.078Z,70.41
2023-01-31T13:58:33.491Z,70.35
2023-01-31T14:03:27.561Z,70.11
2023-01-31T14:08:26.578Z,70.30
2023-01-31T14:13:27.962Z,70.08
2023-01-31T14:18:59.820Z,70.34
2023-01-31T14:23:52.836Z,69.94
2023-01-31T14:28:45.928Z,69.71
2023-01-31T14:33:38.821Z,69.77
2023-01-31T14:38:45.184Z,69.73
2023-01-31T14:44:03.530Z,70.23
2023-01-31T14:49:21.739Z,70.46
2023-01-31T14:54:36.376Z,70.72
2023-01-31T14:59:37.628Z,70.52
2023-01-31T15:04:30.612Z,71.33
2023-01-31T15:09:24.771Z,71.06
2023-01-31T15:14:33.727Z,71.33
2023-01-31T15:19:31.857Z,71.40
2023-01-31T15:24:33.825Z,71.81
2023-01-31T15:29:34.609Z,71.51
2023-01-31T15:34:33.888Z,71.50
2023-01-31T15:39:33.509Z,71.89
2023-01-31T15:44:29.378Z,72.12
2023-01-31T15:49:38.160Z,71.87
2023-01-31T15:54:32.714Z,72.05
2023-01-31T15:59:29.668Z,72.33
2023-01-31T16:04:23.490Z,72.48
2023-01-31T16:09:38.527Z,72.49
2023-01-31T16:14:31.831Z,72.87
2023-01-31T16:19:36.072Z,72.71
2023-01-31T16:24:29.663Z,72.98
2023-01-31T16:29:25.702Z,72.98
2023-01-31T16:34:27.561Z,73.36
2023-01-31T16:39:34.339Z,73.31
2023-01-31T16:44:35.122Z,73.29
2023-01-31T16:50:42.568Z,73.24
2023-01-31T16:55:49.656Z,73.13
2023-01-31T17:00:45.062Z,73.57
2023-01-31T17:05:45.262Z,73.83
2023-01-31T17:10:41.366Z,73.54
2023-01-31T17:15:34.178Z,73.47
2023-01-31T17:20:27.003Z,73.63
2023-01-31T17:25:22.653Z,73.75
2023-01-31T17:30:18.059Z,73.65
2023-01-31T17:35:21.474Z,73.87
2023-01-31T17:40:14.643Z,73.92
2023-01-31T17:45:13.415Z,74.03
2023-01-31T17:50:06.676Z,73.98
2023-01-31T17:54:59.523Z,74.10
2023-01-31T17:59:53.223Z,74.09
2023-01-31T18:04:46.653Z,74.34
2023-01-31T18:09:39.728Z,74.55
2023-01-31T18:14:32.887Z,74.49
2023-01-31T18:19:25.993Z,74.22
2023-01-31T18:24:18.830Z,74.27
2023-01-31T18:29:19.523Z,74.82
2023-01-31T18:34:12.427Z,74.37
2023-01-31T18:39:05.224Z,74.86
2023-01-31T18:43:58.343Z,74.75
2023-01-31T18:48:51.118Z,74.96
2023-01-31T18:53:47.418Z,75.22
2023-01-31T18:58:42.127Z,75.20
2023-01-31T19:03:35.175Z,75.26
2023-01-31T19:08:28.054Z,75.55
2023-01-31T19:13:20.925Z,75.79
2023-01-31T19:18:14.941Z,76.05
2023-01-31T19:23:07.748Z,76.13
2023-01-31T19:28:01.198Z,76.59
2023-01-31T19:32:54.019Z,77.04
2023-01-31T19:37:46.837Z,77.37
2023-01-31T19:42:40.944Z,77.55
2023-01-31T19:47:34.249Z,77.79
2023-01-31T19:52:27.036Z,78.33
2023-01-31T19:57:59.929Z,78.53
2023-01-31T20:02:52.761Z,78.81
2023-01-31T20:07:45.712Z,79.09
2023-01-31T20:12:38.674Z,79.73
2023-01-31T20:17:31.556Z,79.81
2023-01-31T20:22:24.736Z,79.92
2023-01-31T20:27:17.602Z,80.24
2023-01-31T20:32:13.370Z,80.46
2023-01-31T20:37:06.174Z,80.68
2023-01-31T20:41:59.054Z,81.08
2023-01-31T20:46:51.948Z,81.35
2023-01-31T20:51:45.096Z,81.39
2023-01-31T20:56:37.880Z,81.51
2023-01-31T21:01:30.696Z,81.67
2023-01-31T21:06:23.492Z,81.93
2023-01-31T21:11:16.660Z,82.03
2023-01-31T21:16:12.086Z,82.34
2023-01-31T21:21:09.813Z,82.67
2023-01-31T21:26:04.007Z,82.90
2023-01-31T21:31:02.268Z,83.21
2023-01-31T21:35:58.335Z,83.30
2023-01-31T21:41:12.725Z,83.52
2023-01-31T21:46:09.499Z,83.41
2023-01-31T21:51:07.730Z,83.75
2023-01-31T21:56:10.669Z,83.92
2023-01-31T22:01:04.697Z,84.19
2023-01-31T22:06:05.429Z,84.53
2023-01-31T22:11:07.066Z,84.46
2023-01-31T22:16:09.908Z,84.59
2023-01-31T22:21:14.423Z,84.73
2023-01-31T22:26:13.455Z,84.26
2023-01-31T22:31:08.123Z,84.26
2023-01-31T22:36:01.140Z,83.93
2023-01-31T22:41:00.319Z,84.54
2023-01-31T22:45:55.304Z,84.66
2023-01-31T22:50:55.979Z,84.79
2023-01-31T22:55:51.307Z,85.19
2023-01-31T23:00:44.216Z,85.18
2023-01-31T23:05:41.320Z,85.42
2023-01-31T23:10:34.221Z,85.74
2023-01-31T23:15:26.877Z,85.81
2023-01-31T23:20:22.446Z,86.28
2023-01-31T23:25:16.039Z,86.21
2023-01-31T23:30:11.031Z,86.41
2023-01-31T23:35:07.376Z,86.57
2023-01-31T23:40:00.864Z,86.69
2023-01-31T23:44:53.877Z,87.22
2023-01-31T23:49:46.900Z,87.37
2023-01-31T23:54:39.568Z,87.35
2023-01-31T23:59:35.391Z,87.32
